sensor_id;sensor_type;location;lat;lon;timestamp;pressure;altitude;pressure_sealevel;temperature;humidity
46506;BME280;32220;49.808;9.968;2023-02-19T09:20:49;99390.13;;;11.47;90.75
46506;BME280;32220;49.808;9.968;2023-02-19T09:23:17;99386.13;;;11.85;86.57
46506;BME280;32220;49.808;9.968;2023-02-19T09:25:44;99360.91;;;11.93;83.17
46506;BME280;32220;49.808;9.968;2023-02-19T09:28:12;99412.47;;;12.47;80.82
46506;BME280;32220;49.808;9.968;2023-02-19T09:30:42;99406.31;;;12.61;81.06
46506;BME280;32220;49.808;9.968;2023-02-19T09:33:09;99392.34;;;12.43;81.71
46506;BME280;32220;49.808;9.968;2023-02-19T09:35:38;99396.81;;;12.42;82.37
46506;BME280;32220;49.808;9.968;2023-02-19T09:38:07;99385.53;;;12.53;81.27
46506;BME280;32220;49.808;9.968;2023-02-19T09:40:37;99397.25;;;12.91;79.33
46506;BME280;32220;49.808;9.968;2023-02-19T09:43:05;99398.25;;;13.32;78.20
46506;BME280;32220;49.808;9.968;2023-02-19T09:45:34;99390.84;;;13.76;74.78
46506;BME280;32220;49.808;9.968;2023-02-19T09:48:04;99416.03;;;13.58;73.34
46506;BME280;32220;49.808;9.968;2023-02-19T09:50:36;99408.81;;;13.33;74.01
46506;BME280;32220;49.808;9.968;2023-02-19T09:53:13;99425.25;;;13.25;73.84
46506;BME280;32220;49.808;9.968;2023-02-19T09:55:42;99411.59;;;13.17;74.14
46506;BME280;32220;49.808;9.968;2023-02-19T09:58:21;99434.66;;;13.31;74.53
46506;BME280;32220;49.808;9.968;2023-02-19T10:00:51;99432.88;;;13.17;74.83
46506;BME280;32220;49.808;9.968;2023-02-19T10:03:22;99424.78;;;13.05;74.71
46506;BME280;32220;49.808;9.968;2023-02-19T10:05:56;99421.72;;;13.11;74.60
46506;BME280;32220;49.808;9.968;2023-02-19T10:08:32;99420.59;;;13.29;74.87
46506;BME280;32220;49.808;9.968;2023-02-19T10:11:01;99452.63;;;13.54;73.75
46506;BME280;32220;49.808;9.968;2023-02-19T10:13:33;99448.47;;;13.77;72.70
46506;BME280;32220;49.808;9.968;2023-02-19T10:16:02;99448.94;;;13.84;71.18
46506;BME280;32220;49.808;9.968;2023-02-19T10:18:38;99454.13;;;13.85;69.57
46506;BME280;32220;49.808;9.968;2023-02-19T10:21:11;99476.41;;;13.84;69.17
46506;BME280;32220;49.808;9.968;2023-02-19T10:23:43;99462.28;;;13.70;69.75
46506;BME280;32220;49.808;9.968;2023-02-19T10:26:11;99475.75;;;13.81;69.82
46506;BME280;32220;49.808;9.968;2023-02-19T10:28:38;99452.69;;;13.67;69.43
46506;BME280;32220;49.808;9.968;2023-02-19T10:31:15;99471.69;;;13.61;69.00
46506;BME280;32220;49.808;9.968;2023-02-19T10:33:48;99477.88;;;13.61;69.44
46506;BME280;32220;49.808;9.968;2023-02-19T10:36:24;99486.72;;;13.62;70.11
46506;BME280;32220;49.808;9.968;2023-02-19T10:38:55;99488.84;;;13.57;69.70
46506;BME280;32220;49.808;9.968;2023-02-19T10:41:24;99499.69;;;13.54;70.32
46506;BME280;32220;49.808;9.968;2023-02-19T10:43:54;99487.06;;;13.43;71.04
46506;BME280;32220;49.808;9.968;2023-02-19T10:46:27;99495.91;;;13.44;71.62
46506;BME280;32220;49.808;9.968;2023-02-19T10:48:57;99496.59;;;13.33;71.90
46506;BME280;32220;49.808;9.968;2023-02-19T10:51:32;99499.81;;;13.24;72.00
46506;BME280;32220;49.808;9.968;2023-02-19T10:54:18;99499.59;;;13.13;72.32
46506;BME280;32220;49.808;9.968;2023-02-19T10:56:46;99486.63;;;12.94;73.11
46506;BME280;32220;49.808;9.968;2023-02-19T10:59:22;99484.72;;;12.82;73.68
46506;BME280;32220;49.808;9.968;2023-02-19T11:01:55;99503.41;;;12.80;74.12
46506;BME280;32220;49.808;9.968;2023-02-19T11:04:25;99488.31;;;12.67;74.49
46506;BME280;32220;49.808;9.968;2023-02-19T11:06:54;99487.34;;;12.68;74.65
46506;BME280;32220;49.808;9.968;2023-02-19T11:09:27;99497.25;;;12.80;74.97
46506;BME280;32220;49.808;9.968;2023-02-19T11:11:57;99506.16;;;12.79;74.67
46506;BME280;32220;49.808;9.968;2023-02-19T11:14:26;99498.66;;;12.71;73.93
46506;BME280;32220;49.808;9.968;2023-02-19T11:16:57;99525.28;;;12.85;73.50
46506;BME280;32220;49.808;9.968;2023-02-19T11:19:32;99516.13;;;12.89;72.58
46506;BME280;32220;49.808;9.968;2023-02-19T11:22:26;99521.94;;;13.10;72.06
46506;BME280;32220;49.808;9.968;2023-02-19T11:25:00;99512.66;;;13.17;71.66
46506;BME280;32220;49.808;9.968;2023-02-19T11:27:29;99495.13;;;13.13;70.87
46506;BME280;32220;49.808;9.968;2023-02-19T11:33:20;99538.47;;;13.44;69.75
46506;BME280;32220;49.808;9.968;2023-02-19T11:35:49;99538.47;;;13.44;69.78
46506;BME280;32220;49.808;9.968;2023-02-19T11:38:18;99536.38;;;13.49;69.27
46506;BME280;32220;49.808;9.968;2023-02-19T11:40:53;99536.59;;;13.46;68.07
46506;BME280;32220;49.808;9.968;2023-02-19T11:43:36;99552.44;;;13.47;67.14
46506;BME280;32220;49.808;9.968;2023-02-19T11:46:08;99562.97;;;13.49;66.94
46506;BME280;32220;49.808;9.968;2023-02-19T11:48:55;99563.19;;;13.46;66.86
46506;BME280;32220;49.808;9.968;2023-02-19T11:51:57;99573.66;;;13.35;67.96
46506;BME280;32220;49.808;9.968;2023-02-19T11:54:45;99541.16;;;13.15;70.47
46506;BME280;32220;49.808;9.968;2023-02-19T11:57:29;99538.97;;;13.22;72.85
46506;BME280;32220;49.808;9.968;2023-02-19T12:00:15;99546.84;;;13.38;72.54
46506;BME280;32220;49.808;9.968;2023-02-19T12:02:58;99540.53;;;13.53;71.56
46506;BME280;32220;49.808;9.968;2023-02-19T12:05:41;99570.53;;;13.83;69.35
46506;BME280;32220;49.808;9.968;2023-02-19T12:08:38;99564.72;;;14.18;68.10
46506;BME280;32220;49.808;9.968;2023-02-19T12:11:21;99551.69;;;14.40;66.31
46506;BME280;32220;49.808;9.968;2023-02-19T12:14:04;99543.97;;;14.62;66.36
46506;BME280;32220;49.808;9.968;2023-02-19T12:16:42;99560.25;;;14.45;64.14
46506;BME280;32220;49.808;9.968;2023-02-19T12:19:34;99568.59;;;14.53;63.77
46506;BME280;32220;49.808;9.968;2023-02-19T12:22:18;99573.63;;;15.08;62.64
46506;BME280;32220;49.808;9.968;2023-02-19T12:25:23;99603.72;;;16.82;58.06
46506;BME280;32220;49.808;9.968;2023-02-19T12:28:14;99599.09;;;17.52;55.48
46506;BME280;32220;49.808;9.968;2023-02-19T12:34:25;99631.09;;;18.75;50.60
46506;BME280;32220;49.808;9.968;2023-02-19T12:37:04;99585.47;;;18.75;51.38
46506;BME280;32220;49.808;9.968;2023-02-19T12:39:45;99627.47;;;18.54;51.30
46506;BME280;32220;49.808;9.968;2023-02-19T12:42:23;99630.78;;;17.81;52.08
46506;BME280;32220;49.808;9.968;2023-02-19T12:44:56;99613.66;;;17.15;53.39
46506;BME280;32220;49.808;9.968;2023-02-19T12:47:30;99622.41;;;16.71;55.06
46506;BME280;32220;49.808;9.968;2023-02-19T12:50:04;99605.66;;;16.32;56.65
46506;BME280;32220;49.808;9.968;2023-02-19T12:52:37;99600.84;;;16.13;57.24
46506;BME280;32220;49.808;9.968;2023-02-19T12:55:17;99586.81;;;15.86;58.33
46506;BME280;32220;49.808;9.968;2023-02-19T12:57:49;99587.69;;;15.74;58.92
46506;BME280;32220;49.808;9.968;2023-02-19T13:00:28;99597.13;;;15.41;60.13
46506;BME280;32220;49.808;9.968;2023-02-19T13:03:03;99585.41;;;15.06;60.69
46506;BME280;32220;49.808;9.968;2023-02-19T13:05:41;99557.00;;;14.80;61.94
46506;BME280;32220;49.808;9.968;2023-02-19T13:08:14;99532.88;;;14.68;62.06
46506;BME280;32220;49.808;9.968;2023-02-19T13:10:49;99552.94;;;14.87;62.38
46506;BME280;32220;49.808;9.968;2023-02-19T13:13:22;99564.03;;;14.81;62.13
46506;BME280;32220;49.808;9.968;2023-02-19T13:15:55;99552.94;;;14.74;62.32
46506;BME280;32220;49.808;9.968;2023-02-19T13:18:31;99548.66;;;14.71;62.21
46506;BME280;32220;49.808;9.968;2023-02-19T13:21:01;99521.16;;;14.71;62.93
46506;BME280;32220;49.808;9.968;2023-02-19T13:23:30;99529.03;;;14.72;62.14
46506;BME280;32220;49.808;9.968;2023-02-19T13:26:30;99565.97;;;14.91;61.11
46506;BME280;32220;49.808;9.968;2023-02-19T13:29:15;99551.41;;;15.59;60.05
46506;BME280;32220;49.808;9.968;2023-02-19T13:32:02;99552.19;;;16.56;57.40
46506;BME280;32220;49.808;9.968;2023-02-19T13:34:49;99578.44;;;16.51;55.73
46506;BME280;32220;49.808;9.968;2023-02-19T13:37:20;99557.22;;;16.13;55.96
46506;BME280;32220;49.808;9.968;2023-02-19T13:39:50;99579.28;;;16.28;56.45
46506;BME280;32220;49.808;9.968;2023-02-19T13:42:24;99584.34;;;16.67;54.80
46506;BME280;32220;49.808;9.968;2023-02-19T13:44:53;99603.16;;;17.01;53.78
46506;BME280;32220;49.808;9.968;2023-02-19T13:47:48;99599.44;;;17.26;54.14
46506;BME280;32220;49.808;9.968;2023-02-19T13:50:20;99611.53;;;17.87;52.15
46506;BME280;32220;49.808;9.968;2023-02-19T13:52:49;99600.16;;;18.17;51.63
46506;BME280;32220;49.808;9.968;2023-02-19T13:55:47;99619.63;;;18.73;49.68
46506;BME280;32220;49.808;9.968;2023-02-19T13:58:37;99650.16;;;18.61;48.09
46506;BME280;32220;49.808;9.968;2023-02-19T14:01:08;99640.16;;;17.86;49.43
46506;BME280;32220;49.808;9.968;2023-02-19T14:03:45;99640.91;;;17.20;51.14
46506;BME280;32220;49.808;9.968;2023-02-19T14:06:15;99621.16;;;16.99;51.72
46506;BME280;32220;49.808;9.968;2023-02-19T14:08:49;99629.72;;;17.04;51.95
46506;BME280;32220;49.808;9.968;2023-02-19T14:11:18;99629.94;;;17.01;52.90
46506;BME280;32220;49.808;9.968;2023-02-19T14:14:26;99612.84;;;16.79;52.60
46506;BME280;32220;49.808;9.968;2023-02-19T14:16:59;99622.00;;;16.88;52.95
46506;BME280;32220;49.808;9.968;2023-02-19T14:19:49;99643.25;;;17.24;52.44
46506;BME280;32220;49.808;9.968;2023-02-19T14:22:57;99645.59;;;18.29;51.05
46506;BME280;32220;49.808;9.968;2023-02-19T14:25:36;99661.94;;;18.70;48.86
46506;BME280;32220;49.808;9.968;2023-02-19T14:28:14;99654.34;;;18.31;49.29
46506;BME280;32220;49.808;9.968;2023-02-19T14:30:47;99632.59;;;17.69;50.15
46506;BME280;32220;49.808;9.968;2023-02-19T14:33:17;99621.06;;;17.11;51.32
46506;BME280;32220;49.808;9.968;2023-02-19T14:35:47;99634.16;;;16.81;53.12
46506;BME280;32220;49.808;9.968;2023-02-19T14:38:20;99619.56;;;16.37;53.62
46506;BME280;32220;49.808;9.968;2023-02-19T14:40:50;99630.16;;;16.02;54.27
46506;BME280;32220;49.808;9.968;2023-02-19T14:43:21;99639.84;;;15.79;55.54
46506;BME280;32220;49.808;9.968;2023-02-19T14:45:53;99640.91;;;15.52;55.95
46506;BME280;32220;49.808;9.968;2023-02-19T14:48:25;99647.94;;;15.27;56.83
46506;BME280;32220;49.808;9.968;2023-02-19T14:51:02;99620.28;;;15.03;57.70
46506;BME280;32220;49.808;9.968;2023-02-19T14:53:36;99649.19;;;14.96;57.48
46506;BME280;32220;49.808;9.968;2023-02-19T14:56:12;99617.34;;;14.68;57.92
46506;BME280;32220;49.808;9.968;2023-02-19T14:58:45;99626.28;;;14.54;58.54
46506;BME280;32220;49.808;9.968;2023-02-19T15:01:28;99627.31;;;14.52;59.18
46506;BME280;32220;49.808;9.968;2023-02-19T15:03:55;99613.47;;;14.59;59.25
46506;BME280;32220;49.808;9.968;2023-02-19T15:06:24;99617.56;;;14.65;58.74
46506;BME280;32220;49.808;9.968;2023-02-19T15:08:57;99626.75;;;14.86;58.79
46506;BME280;32220;49.808;9.968;2023-02-19T15:11:27;99616.13;;;14.99;58.25
46506;BME280;32220;49.808;9.968;2023-02-19T15:14:00;99624.66;;;15.04;57.65
46506;BME280;32220;49.808;9.968;2023-02-19T15:16:29;99619.44;;;15.02;57.78
46506;BME280;32220;49.808;9.968;2023-02-19T15:18:58;99622.00;;;15.04;57.73
46506;BME280;32220;49.808;9.968;2023-02-19T15:21:30;99635.34;;;15.04;57.76
46506;BME280;32220;49.808;9.968;2023-02-19T15:24:01;99633.41;;;14.93;58.30
46506;BME280;32220;49.808;9.968;2023-02-19T15:26:33;99623.78;;;14.78;58.52
46506;BME280;32220;49.808;9.968;2023-02-19T15:29:07;99639.97;;;14.75;58.67
46506;BME280;32220;49.808;9.968;2023-02-19T15:31:43;99633.94;;;14.59;59.35
46506;BME280;32220;49.808;9.968;2023-02-19T15:34:15;99630.59;;;14.43;59.64
46506;BME280;32220;49.808;9.968;2023-02-19T15:36:43;99619.13;;;14.14;60.00
46506;BME280;32220;49.808;9.968;2023-02-19T15:39:18;99598.47;;;13.90;60.54
46506;BME280;32220;49.808;9.968;2023-02-19T15:41:55;99624.06;;;13.93;61.15
46506;BME280;32220;49.808;9.968;2023-02-19T15:44:33;99597.09;;;13.71;62.02
46506;BME280;32220;49.808;9.968;2023-02-19T15:47:09;99610.50;;;13.55;62.08
46506;BME280;32220;49.808;9.968;2023-02-19T15:49:48;99612.97;;;13.44;62.37
46506;BME280;32220;49.808;9.968;2023-02-19T15:52:28;99631.78;;;13.41;62.76
46506;BME280;32220;49.808;9.968;2023-02-19T15:55:06;99618.22;;;13.31;62.62
46506;BME280;32220;49.808;9.968;2023-02-19T15:57:43;99616.50;;;13.30;63.44
46506;BME280;32220;49.808;9.968;2023-02-19T16:00:16;99622.84;;;13.27;63.19
46506;BME280;32220;49.808;9.968;2023-02-19T16:02:46;99639.56;;;13.29;63.41
46506;BME280;32220;49.808;9.968;2023-02-19T16:05:22;99591.59;;;12.87;63.59
46506;BME280;32220;49.808;9.968;2023-02-19T16:08:05;99649.94;;;13.20;63.69
46506;BME280;32220;49.808;9.968;2023-02-19T16:10:34;99637.03;;;13.12;63.84
46506;BME280;32220;49.808;9.968;2023-02-19T16:13:04;99645.81;;;13.14;64.16
46506;BME280;32220;49.808;9.968;2023-02-19T16:15:33;99637.69;;;13.02;64.18
46506;BME280;32220;49.808;9.968;2023-02-19T16:18:02;99645.31;;;13.08;64.40
46506;BME280;32220;49.808;9.968;2023-02-19T16:20:31;99647.38;;;13.03;64.82
46506;BME280;32220;49.808;9.968;2023-02-19T16:23:02;99631.41;;;12.88;65.08
46506;BME280;32220;49.808;9.968;2023-02-19T16:25:35;99624.91;;;12.78;65.29
46506;BME280;32220;49.808;9.968;2023-02-19T16:28:12;99639.06;;;12.79;65.76
46506;BME280;32220;49.808;9.968;2023-02-19T16:30:40;99636.97;;;12.70;66.13
46506;BME280;32220;49.808;9.968;2023-02-19T16:33:19;99642.63;;;12.64;66.32
46506;BME280;32220;49.808;9.968;2023-02-19T16:35:48;99639.56;;;12.55;66.29
46506;BME280;32220;49.808;9.968;2023-02-19T16:38:18;99632.47;;;12.40;66.78
46506;BME280;32220;49.808;9.968;2023-02-19T16:43:42;99637.47;;;12.15;67.90
46506;BME280;32220;49.808;9.968;2023-02-19T16:46:11;99611.19;;;11.95;67.98
46506;BME280;32220;49.808;9.968;2023-02-19T16:48:39;99645.19;;;12.04;68.43
46506;BME280;32220;49.808;9.968;2023-02-19T16:51:08;99643.63;;;12.00;68.32
46506;BME280;32220;49.808;9.968;2023-02-19T16:53:43;99631.66;;;11.93;67.66
46506;BME280;32220;49.808;9.968;2023-02-19T16:56:14;99650.84;;;11.98;67.74
46506;BME280;32220;49.808;9.968;2023-02-19T16:58:45;99654.94;;;12.03;67.96
46506;BME280;32220;49.808;9.968;2023-02-19T17:01:13;99656.81;;;12.01;67.51
46506;BME280;32220;49.808;9.968;2023-02-19T17:03:40;99655.97;;;12.01;67.80
46506;BME280;32220;49.808;9.968;2023-02-19T17:06:09;99631.03;;;11.87;68.27
46506;BME280;32220;49.808;9.968;2023-02-19T17:08:40;99655.78;;;11.88;68.52
46506;BME280;32220;49.808;9.968;2023-02-19T17:11:11;99667.44;;;11.85;68.96
46506;BME280;32220;49.808;9.968;2023-02-19T17:13:40;99663.25;;;11.64;69.10
46506;BME280;32220;49.808;9.968;2023-02-19T17:16:16;99670.63;;;11.59;69.41
46506;BME280;32220;49.808;9.968;2023-02-19T17:18:44;99678.22;;;11.49;69.64
46506;BME280;32220;49.808;9.968;2023-02-19T17:21:14;99691.94;;;11.40;69.58
46506;BME280;32220;49.808;9.968;2023-02-19T17:23:42;99691.66;;;11.29;70.03
46506;BME280;32220;49.808;9.968;2023-02-19T17:26:12;99695.31;;;11.27;70.29
46506;BME280;32220;49.808;9.968;2023-02-19T17:28:41;99697.50;;;11.19;70.31
46506;BME280;32220;49.808;9.968;2023-02-19T17:31:10;99694.41;;;11.10;70.38
46506;BME280;32220;49.808;9.968;2023-02-19T17:33:40;99716.22;;;11.15;70.56
46506;BME280;32220;49.808;9.968;2023-02-19T17:36:15;99726.22;;;11.10;70.32
46506;BME280;32220;49.808;9.968;2023-02-19T17:38:44;99726.66;;;11.01;71.33
46506;BME280;32220;49.808;9.968;2023-02-19T17:41:12;99736.50;;;10.99;71.29
46506;BME280;32220;49.808;9.968;2023-02-19T17:43:40;99744.59;;;10.96;71.44
46506;BME280;32220;49.808;9.968;2023-02-19T17:46:13;99729.31;;;10.84;71.63
46506;BME280;32220;49.808;9.968;2023-02-19T17:48:41;99736.94;;;10.90;71.88
46506;BME280;32220;49.808;9.968;2023-02-19T17:51:09;99729.47;;;10.81;71.80
46506;BME280;32220;49.808;9.968;2023-02-19T17:53:36;99741.31;;;10.91;71.63
46506;BME280;32220;49.808;9.968;2023-02-19T17:56:05;99739.44;;;10.93;71.52
46506;BME280;32220;49.808;9.968;2023-02-19T17:58:34;99746.47;;;10.94;71.66
46506;BME280;32220;49.808;9.968;2023-02-19T18:01:01;99747.41;;;10.93;72.30
46506;BME280;32220;49.808;9.968;2023-02-19T18:03:31;99751.00;;;10.92;72.68
46506;BME280;32220;49.808;9.968;2023-02-19T18:05:59;99749.25;;;10.91;72.49
46506;BME280;32220;49.808;9.968;2023-02-19T18:08:26;99744.03;;;10.90;72.89
46506;BME280;32220;49.808;9.968;2023-02-19T18:10:54;99748.47;;;10.89;73.56
46506;BME280;32220;49.808;9.968;2023-02-19T18:13:22;99733.13;;;10.78;73.86
46506;BME280;32220;49.808;9.968;2023-02-19T18:15:50;99731.47;;;10.76;74.22
46506;BME280;32220;49.808;9.968;2023-02-19T18:18:19;99733.50;;;10.71;74.63
46506;BME280;32220;49.808;9.968;2023-02-19T18:20:49;99769.84;;;10.86;74.45
46506;BME280;32220;49.808;9.968;2023-02-19T18:23:17;99765.56;;;10.84;74.64
46506;BME280;32220;49.808;9.968;2023-02-19T18:25:46;99767.28;;;10.85;74.72
46506;BME280;32220;49.808;9.968;2023-02-19T18:28:14;99770.00;;;10.83;74.73
46506;BME280;32220;49.808;9.968;2023-02-19T18:30:42;99756.28;;;10.75;74.89
46506;BME280;32220;49.808;9.968;2023-02-19T18:33:10;99773.44;;;10.85;74.53
46506;BME280;32220;49.808;9.968;2023-02-19T18:35:38;99746.03;;;10.67;75.54
46506;BME280;32220;49.808;9.968;2023-02-19T18:38:07;99775.50;;;10.78;75.38
46506;BME280;32220;49.808;9.968;2023-02-19T18:40:35;99773.72;;;10.79;75.56
46506;BME280;32220;49.808;9.968;2023-02-19T18:43:03;99781.66;;;10.79;75.42
46506;BME280;32220;49.808;9.968;2023-02-19T18:45:31;99756.69;;;10.66;75.80
46506;BME280;32220;49.808;9.968;2023-02-19T18:48:03;99780.03;;;10.76;75.88
46506;BME280;32220;49.808;9.968;2023-02-19T18:50:31;99779.16;;;10.76;76.08
46506;BME280;32220;49.808;9.968;2023-02-19T18:53:00;99762.06;;;10.64;76.63
46506;BME280;32220;49.808;9.968;2023-02-19T18:55:29;99760.28;;;10.65;76.39
46506;BME280;32220;49.808;9.968;2023-02-19T18:57:57;99778.41;;;10.74;76.77
46506;BME280;32220;49.808;9.968;2023-02-19T19:00:25;99758.56;;;10.64;76.69
46506;BME280;32220;49.808;9.968;2023-02-19T19:02:57;99772.44;;;10.69;77.04
46506;BME280;32220;49.808;9.968;2023-02-19T19:05:26;99723.91;;;10.32;77.11
46506;BME280;32220;49.808;9.968;2023-02-19T19:07:55;99771.03;;;10.62;77.55
46506;BME280;32220;49.808;9.968;2023-02-19T19:10:24;99753.84;;;10.52;77.67
46506;BME280;32220;49.808;9.968;2023-02-19T19:12:54;99752.44;;;10.44;78.81
46506;BME280;32220;49.808;9.968;2023-02-19T19:15:22;99767.03;;;10.53;78.69
46506;BME280;32220;49.808;9.968;2023-02-19T19:17:50;99741.44;;;10.35;78.73
46506;BME280;32220;49.808;9.968;2023-02-19T19:20:20;99787.22;;;10.56;79.12
46506;BME280;32220;49.808;9.968;2023-02-19T19:22:50;99775.16;;;10.50;79.43
46506;BME280;32220;49.808;9.968;2023-02-19T19:25:19;99783.50;;;10.60;79.14
46506;BME280;32220;49.808;9.968;2023-02-19T19:27:48;99782.63;;;10.59;79.58
46506;BME280;32220;49.808;9.968;2023-02-19T19:30:18;99765.31;;;10.52;80.91
46506;BME280;32220;49.808;9.968;2023-02-19T19:32:47;99769.31;;;10.42;81.44
46506;BME280;32220;49.808;9.968;2023-02-19T19:35:15;99773.75;;;10.41;82.74
46506;BME280;32220;49.808;9.968;2023-02-19T19:37:43;99764.75;;;10.27;83.19
46506;BME280;32220;49.808;9.968;2023-02-19T19:40:11;99761.41;;;10.23;83.52
46506;BME280;32220;49.808;9.968;2023-02-19T19:42:39;99774.47;;;10.26;83.88
46506;BME280;32220;49.808;9.968;2023-02-19T19:45:07;99775.97;;;10.13;84.29
46506;BME280;32220;49.808;9.968;2023-02-19T19:47:38;99784.59;;;10.17;84.25
46506;BME280;32220;49.808;9.968;2023-02-19T19:50:06;99761.97;;;9.91;84.71
46506;BME280;32220;49.808;9.968;2023-02-19T19:52:34;99806.63;;;10.17;84.73
46506;BME280;32220;49.808;9.968;2023-02-19T19:55:02;99810.22;;;10.16;85.11
46506;BME280;32220;49.808;9.968;2023-02-19T19:57:30;99773.47;;;9.90;85.69
46506;BME280;32220;49.808;9.968;2023-02-19T19:59:58;99801.91;;;10.05;86.07
46506;BME280;32220;49.808;9.968;2023-02-19T20:02:26;99812.94;;;10.15;86.10
46506;BME280;32220;49.808;9.968;2023-02-19T20:04:55;99814.88;;;10.11;85.69
46506;BME280;32220;49.808;9.968;2023-02-19T20:07:23;99818.16;;;10.16;85.75
46506;BME280;32220;49.808;9.968;2023-02-19T20:09:51;99824.53;;;10.12;85.66
46506;BME280;32220;49.808;9.968;2023-02-19T20:12:18;99807.34;;;10.02;85.63
46506;BME280;32220;49.808;9.968;2023-02-19T20:14:46;99809.13;;;10.01;85.56
46506;BME280;32220;49.808;9.968;2023-02-19T20:17:14;99830.81;;;10.09;85.68
46506;BME280;32220;49.808;9.968;2023-02-19T20:19:44;99815.13;;;10.05;85.91
46506;BME280;32220;49.808;9.968;2023-02-19T20:22:13;99836.97;;;10.10;85.74
46506;BME280;32220;49.808;9.968;2023-02-19T20:24:41;99835.19;;;10.11;85.85
46506;BME280;32220;49.808;9.968;2023-02-19T20:27:09;99839.56;;;10.12;85.74
46506;BME280;32220;49.808;9.968;2023-02-19T20:29:37;99840.47;;;10.11;85.94
46506;BME280;32220;49.808;9.968;2023-02-19T20:32:05;99813.72;;;9.98;85.68
46506;BME280;32220;49.808;9.968;2023-02-19T20:34:33;99831.09;;;10.03;85.83
46506;BME280;32220;49.808;9.968;2023-02-19T20:37:00;99836.97;;;10.10;85.53
46506;BME280;32220;49.808;9.968;2023-02-19T20:39:30;99826.53;;;10.07;85.38
46506;BME280;32220;49.808;9.968;2023-02-19T20:41:58;99845.47;;;10.18;85.71
46506;BME280;32220;49.808;9.968;2023-02-19T20:44:27;99852.56;;;10.16;86.47
46506;BME280;32220;49.808;9.968;2023-02-19T20:46:56;99855.16;;;10.18;86.48
46506;BME280;32220;49.808;9.968;2023-02-19T20:49:26;99837.03;;;10.08;86.59
46506;BME280;32220;49.808;9.968;2023-02-19T20:51:56;99843.00;;;10.14;86.82
46506;BME280;32220;49.808;9.968;2023-02-19T20:54:26;99837.41;;;10.01;87.02
46506;BME280;32220;49.808;9.968;2023-02-19T20:56:58;99853.59;;;10.14;87.53
46506;BME280;32220;49.808;9.968;2023-02-19T20:59:27;99853.66;;;10.12;87.72
46506;BME280;32220;49.808;9.968;2023-02-19T21:01:56;99854.59;;;10.11;88.06
